createdAt,value
2018-12-24T00:02:54.480Z,5.20
2018-12-24T00:05:18.163Z,5.10
2018-12-24T00:12:46.599Z,5.00
2018-12-24T00:15:24.995Z,5.00
2018-12-24T00:17:36.067Z,5.00
2018-12-24T00:25:00.873Z,4.90
2018-12-24T00:27:25.239Z,4.80
2018-12-24T00:40:08.255Z,4.80
2018-12-24T00:42:31.639Z,4.70
2018-12-24T00:44:55.253Z,4.70
2018-12-24T00:52:35.135Z,4.70
2018-12-24T00:59:59.887Z,4.60
2018-12-24T01:02:23.579Z,4.60
2018-12-24T01:04:47.651Z,4.60
2018-12-24T01:07:30.245Z,4.60
2018-12-24T01:14:55.600Z,4.40
2018-12-24T01:22:54.291Z,4.40
2018-12-24T01:25:37.396Z,4.50
2018-12-24T01:28:12.058Z,4.50
2018-12-24T01:35:39.415Z,4.30
2018-12-24T01:38:03.604Z,4.20
2018-12-24T01:40:27.271Z,4.20
2018-12-24T01:42:42.227Z,4.10
2018-12-24T01:45:06.078Z,4.00
2018-12-24T01:47:29.646Z,4.00
2018-12-24T01:57:25.723Z,3.80
2018-12-24T01:59:49.264Z,3.80
2018-12-24T02:02:13.387Z,3.70
2018-12-24T02:07:08.043Z,3.70
2018-12-24T02:09:50.609Z,3.70
2018-12-24T02:12:14.307Z,3.60
2018-12-24T02:14:37.664Z,3.60
2018-12-24T02:22:20.476Z,3.40
2018-12-24T02:24:44.580Z,3.40
2018-12-24T02:27:27.201Z,3.40
2018-12-24T02:35:24.041Z,3.30
2018-12-24T02:37:47.399Z,3.20
2018-12-24T02:42:52.379Z,3.20
2018-12-24T02:44:58.504Z,3.20
2018-12-24T02:47:13.313Z,3.10
2018-12-24T02:49:56.113Z,3.10
2018-12-24T02:52:19.697Z,3.10
2018-12-24T02:54:43.047Z,3.00
2018-12-24T03:02:21.253Z,3.10
2018-12-24T03:05:04.251Z,3.10
2018-12-24T03:07:28.543Z,3.10
2018-12-24T03:12:37.181Z,3.00
2018-12-24T03:15:01.373Z,3.00
2018-12-24T03:17:25.404Z,3.00
2018-12-24T03:22:41.557Z,3.00
2018-12-24T03:25:06.155Z,3.10
2018-12-24T03:30:14.932Z,2.90
2018-12-24T03:35:24.176Z,3.00
2018-12-24T03:38:01.985Z,3.00
2018-12-24T03:40:13.275Z,2.80
2018-12-24T03:45:06.705Z,2.70
2018-12-24T03:47:42.026Z,2.80
2018-12-24T03:49:48.829Z,2.80
2018-12-24T03:52:05.348Z,2.80
2018-12-24T03:54:19.947Z,2.70
2018-12-24T03:56:44.187Z,2.50
2018-12-24T03:59:08.196Z,2.50
2018-12-24T04:01:31.839Z,2.50
2018-12-24T04:03:55.551Z,2.40
2018-12-24T04:06:19.646Z,2.50
2018-12-24T04:11:49.689Z,2.40
2018-12-24T04:14:05.840Z,2.40
2018-12-24T04:16:22.197Z,2.30
2018-12-24T04:18:38.947Z,2.30
2018-12-24T04:20:55.251Z,2.20
2018-12-24T04:23:11.487Z,2.30
2018-12-24T04:25:28.220Z,2.20
2018-12-24T04:27:44.679Z,2.10
2018-12-24T04:30:01.261Z,2.20
2018-12-24T04:32:18.215Z,2.20
2018-12-24T04:34:34.531Z,2.10
2018-12-24T04:36:50.967Z,2.20
2018-12-24T04:39:07.295Z,2.20
2018-12-24T04:41:23.845Z,2.10
2018-12-24T04:43:39.509Z,2.20
2018-12-24T04:45:55.654Z,2.10
2018-12-24T04:48:11.547Z,2.10
2018-12-24T04:50:28.483Z,2.10
2018-12-24T04:52:45.088Z,2.10
2018-12-24T04:55:00.805Z,2.20
2018-12-24T04:57:17.545Z,2.00
2018-12-24T04:59:34.325Z,2.10
2018-12-24T05:01:50.440Z,2.10
2018-12-24T05:04:06.095Z,2.10
2018-12-24T05:06:22.592Z,1.90
2018-12-24T05:08:38.719Z,1.90
2018-12-24T05:10:54.585Z,1.90
2018-12-24T05:13:10.137Z,1.80
2018-12-24T05:15:26.984Z,1.90
2018-12-24T05:17:43.242Z,1.80
2018-12-24T05:19:59.678Z,1.70
2018-12-24T05:22:15.275Z,1.70
2018-12-24T05:24:31.731Z,1.70
2018-12-24T05:26:47.877Z,1.70
2018-12-24T05:29:04.175Z,1.70
2018-12-24T05:31:20.900Z,1.60
2018-12-24T05:33:37.645Z,1.60
2018-12-24T05:35:53.888Z,1.60
2018-12-24T05:38:10.047Z,1.50
2018-12-24T05:40:26.850Z,1.50
2018-12-24T05:42:42.776Z,1.50
2018-12-24T05:44:59.116Z,1.50
2018-12-24T05:47:15.175Z,1.30
2018-12-24T05:49:31.260Z,1.30
2018-12-24T05:51:47.099Z,1.40
2018-12-24T05:54:02.860Z,1.40
2018-12-24T05:56:18.471Z,1.40
2018-12-24T06:00:58.711Z,1.40
2018-12-24T06:03:14.600Z,1.50
2018-12-24T06:05:30.230Z,1.50
2018-12-24T06:07:46.107Z,1.50
2018-12-24T06:10:02.023Z,1.50
2018-12-24T06:12:17.738Z,1.50
2018-12-24T06:14:33.820Z,1.70
2018-12-24T06:16:49.910Z,1.70
2018-12-24T06:19:05.744Z,1.80
2018-12-24T06:21:21.659Z,1.60
2018-12-24T06:23:37.987Z,1.70
2018-12-24T06:25:55.713Z,1.70
2018-12-24T06:28:12.455Z,1.70
2018-12-24T06:30:29.146Z,1.60
2018-12-24T06:32:45.302Z,1.60
2018-12-24T06:35:02.228Z,1.60
2018-12-24T06:37:18.579Z,1.60
2018-12-24T06:39:35.005Z,1.80
2018-12-24T06:41:51.600Z,1.90
2018-12-24T06:44:08.219Z,1.80
2018-12-24T06:46:24.375Z,1.80
2018-12-24T06:48:40.859Z,1.80
2018-12-24T06:50:57.895Z,1.70
2018-12-24T06:53:14.123Z,1.70
2018-12-24T06:55:30.203Z,1.80
2018-12-24T06:57:46.265Z,1.70
2018-12-24T07:00:01.864Z,1.70
2018-12-24T07:02:18.734Z,1.70
2018-12-24T07:04:35.137Z,1.70
2018-12-24T07:06:51.427Z,1.80
2018-12-24T07:09:08.041Z,1.70
2018-12-24T07:11:23.939Z,1.70
2018-12-24T07:13:39.476Z,1.80
2018-12-24T07:15:55.852Z,1.60
2018-12-24T07:18:11.948Z,1.60
2018-12-24T07:20:28.132Z,1.60
2018-12-24T07:22:44.391Z,1.60
2018-12-24T07:25:00.779Z,1.70
2018-12-24T07:27:16.908Z,1.60
2018-12-24T07:29:33.787Z,1.50
2018-12-24T07:31:50.308Z,1.50
2018-12-24T07:34:06.783Z,1.50
2018-12-24T07:36:23.099Z,1.60
2018-12-24T07:38:39.260Z,1.60
2018-12-24T07:40:55.371Z,1.70
2018-12-24T07:43:11.017Z,1.70
2018-12-24T07:45:26.735Z,1.60
2018-12-24T07:47:42.436Z,1.60
2018-12-24T07:49:58.612Z,1.60
2018-12-24T07:52:15.427Z,1.60
2018-12-24T07:54:31.824Z,1.70
2018-12-24T07:56:48.228Z,1.70
2018-12-24T07:59:04.999Z,1.50
2018-12-24T08:01:21.377Z,1.50
2018-12-24T08:03:37.645Z,1.50
2018-12-24T08:05:53.951Z,1.50
2018-12-24T08:08:09.784Z,1.50
2018-12-24T08:10:26.407Z,1.50
2018-12-24T08:12:42.124Z,1.50
2018-12-24T08:14:58.592Z,1.60
2018-12-24T08:17:14.873Z,1.50
2018-12-24T08:19:31.032Z,1.40
2018-12-24T08:21:47.307Z,1.40
2018-12-24T08:24:04.343Z,1.40
2018-12-24T08:26:20.759Z,1.40
2018-12-24T08:28:37.047Z,1.40
2018-12-24T08:30:53.323Z,1.30
2018-12-24T08:33:09.172Z,1.30
2018-12-24T08:35:25.359Z,1.40
2018-12-24T08:37:41.567Z,1.20
2018-12-24T08:39:58.152Z,1.30
2018-12-24T08:42:14.319Z,1.30
2018-12-24T08:44:30.382Z,0.60
2018-12-24T08:46:46.458Z,1.30
2018-12-24T08:49:02.183Z,1.40
2018-12-24T08:51:17.847Z,1.40
2018-12-24T08:53:33.828Z,1.40
2018-12-24T08:55:49.770Z,1.30
2018-12-24T08:58:05.915Z,1.30
2018-12-24T09:00:23.012Z,1.30
2018-12-24T09:02:39.825Z,1.40
2018-12-24T09:04:56.111Z,1.50
2018-12-24T09:07:12.183Z,1.40
2018-12-24T09:09:28.889Z,1.50
2018-12-24T09:11:45.132Z,0.70
2018-12-24T09:14:01.101Z,1.40
2018-12-24T09:16:17.323Z,1.40
2018-12-24T09:18:32.988Z,1.50
2018-12-24T09:20:52.780Z,1.40
2018-12-24T09:23:08.055Z,1.50
2018-12-24T09:25:24.809Z,1.50
2018-12-24T09:27:40.704Z,0.70
2018-12-24T09:29:56.899Z,1.50
2018-12-24T09:32:13.563Z,1.60
2018-12-24T09:34:30.035Z,1.70
2018-12-24T09:36:46.720Z,1.80
2018-12-24T09:39:04.016Z,1.70
2018-12-24T09:41:20.304Z,1.70
2018-12-24T09:43:34.667Z,1.80
2018-12-24T09:45:58.027Z,1.70
2018-12-24T09:51:00.019Z,1.80
2018-12-24T09:53:16.216Z,1.80
2018-12-24T09:55:32.812Z,2.00
2018-12-24T09:57:49.456Z,2.00
2018-12-24T10:00:05.583Z,2.10
2018-12-24T10:02:21.740Z,2.10
2018-12-24T10:04:37.803Z,2.10
2018-12-24T10:06:53.564Z,2.10
2018-12-24T10:09:10.327Z,2.10
2018-12-24T10:11:25.715Z,2.20
2018-12-24T10:13:41.675Z,2.20
2018-12-24T10:15:58.076Z,2.30
2018-12-24T10:18:14.820Z,2.30
2018-12-24T10:20:31.835Z,2.30
2018-12-24T10:22:48.159Z,2.40
2018-12-24T10:25:04.677Z,2.40
2018-12-24T10:27:21.084Z,2.40
2018-12-24T10:29:37.359Z,2.40
2018-12-24T10:31:53.569Z,2.40
2018-12-24T10:34:09.807Z,2.50
2018-12-24T10:36:26.240Z,2.50
2018-12-24T10:38:42.320Z,2.50
2018-12-24T10:40:58.408Z,2.50
2018-12-24T10:43:14.723Z,2.40
2018-12-24T10:45:30.682Z,2.50
2018-12-24T10:47:47.091Z,2.50
2018-12-24T10:50:03.304Z,2.40
2018-12-24T10:52:20.011Z,2.50
2018-12-24T10:54:36.091Z,2.60
2018-12-24T10:56:51.835Z,2.80
2018-12-24T10:59:07.672Z,2.90
2018-12-24T11:01:24.084Z,3.00
2018-12-24T11:03:40.626Z,3.10
2018-12-24T11:05:57.405Z,3.10
2018-12-24T11:08:13.660Z,2.40
2018-12-24T11:10:29.951Z,2.90
2018-12-24T11:12:46.551Z,3.00
2018-12-24T11:15:02.683Z,3.00
2018-12-24T11:17:19.431Z,3.10
2018-12-24T11:19:35.568Z,3.00
2018-12-24T11:21:51.805Z,3.00
2018-12-24T11:24:07.515Z,3.10
2018-12-24T11:26:23.472Z,3.00
2018-12-24T11:28:39.670Z,2.90
2018-12-24T11:30:55.491Z,3.10
2018-12-24T11:33:12.028Z,3.20
2018-12-24T11:35:28.514Z,3.10
2018-12-24T11:37:44.609Z,2.90
2018-12-24T11:40:00.992Z,2.90
2018-12-24T11:42:17.240Z,2.90
2018-12-24T11:44:33.940Z,2.90
2018-12-24T11:46:50.107Z,3.10
2018-12-24T11:49:06.459Z,3.00
2018-12-24T11:51:22.370Z,3.40
2018-12-24T11:53:38.503Z,3.40
2018-12-24T11:55:55.099Z,3.30
2018-12-24T11:58:13.363Z,3.30
2018-12-24T12:00:29.832Z,3.40
2018-12-24T12:02:46.067Z,3.60
2018-12-24T12:05:02.263Z,3.50
2018-12-24T12:07:18.737Z,3.40
2018-12-24T12:09:34.947Z,3.30
2018-12-24T12:11:50.740Z,3.20
2018-12-24T12:14:06.434Z,3.30
2018-12-24T12:16:23.508Z,3.40
2018-12-24T12:18:39.545Z,3.30
2018-12-24T12:20:55.939Z,3.30
2018-12-24T12:23:11.857Z,3.30
2018-12-24T12:25:28.648Z,3.30
2018-12-24T12:27:44.952Z,3.70
2018-12-24T12:30:01.508Z,4.30
2018-12-24T12:32:17.352Z,4.50
2018-12-24T12:34:33.209Z,4.70
2018-12-24T12:36:49.659Z,4.90
2018-12-24T12:39:05.555Z,4.90
2018-12-24T12:41:21.457Z,4.40
2018-12-24T12:43:37.867Z,4.70
2018-12-24T12:45:54.043Z,4.90
2018-12-24T12:48:10.324Z,5.20
2018-12-24T12:50:26.263Z,4.70
2018-12-24T12:52:42.759Z,4.50
2018-12-24T12:54:58.855Z,4.20
2018-12-24T12:57:14.745Z,4.00
2018-12-24T12:59:31.132Z,3.90
2018-12-24T13:01:46.567Z,3.70
2018-12-24T13:04:02.252Z,3.70
2018-12-24T13:06:18.047Z,3.60
2018-12-24T13:08:34.824Z,3.50
2018-12-24T13:10:51.217Z,3.60
2018-12-24T13:13:07.535Z,3.60
2018-12-24T13:15:23.967Z,3.60
2018-12-24T13:17:40.767Z,3.50
2018-12-24T13:19:57.143Z,3.50
2018-12-24T13:22:13.725Z,3.60
2018-12-24T13:24:30.515Z,3.60
2018-12-24T13:26:46.367Z,3.70
2018-12-24T13:29:02.168Z,3.70
2018-12-24T13:31:18.012Z,3.70
2018-12-24T13:33:33.898Z,3.60
2018-12-24T13:35:49.674Z,3.60
2018-12-24T13:38:05.248Z,3.60
2018-12-24T13:40:21.003Z,3.20
2018-12-24T13:42:37.484Z,3.60
2018-12-24T13:44:53.000Z,3.50
2018-12-24T13:47:07.407Z,3.40
2018-12-24T13:49:42.724Z,3.40
2018-12-24T13:51:56.270Z,3.50
2018-12-24T13:54:12.305Z,3.40
2018-12-24T13:56:28.358Z,3.40
2018-12-24T13:58:45.273Z,3.40
2018-12-24T14:01:01.736Z,3.40
2018-12-24T14:03:17.822Z,3.40
2018-12-24T14:05:34.415Z,3.40
2018-12-24T14:07:51.097Z,3.40
2018-12-24T14:10:07.152Z,3.40
2018-12-24T14:12:24.053Z,3.30
2018-12-24T14:14:39.731Z,3.40
2018-12-24T14:16:56.421Z,3.40
2018-12-24T14:19:12.087Z,3.30
2018-12-24T14:21:28.076Z,3.30
2018-12-24T14:23:43.862Z,3.30
2018-12-24T14:26:00.467Z,3.30
2018-12-24T14:28:17.444Z,3.30
2018-12-24T14:30:33.810Z,3.30
2018-12-24T14:32:50.252Z,3.30
2018-12-24T14:35:07.140Z,3.30
2018-12-24T14:37:23.811Z,3.30
2018-12-24T14:39:40.029Z,3.30
2018-12-24T14:41:56.566Z,3.30
2018-12-24T14:44:12.800Z,3.40
2018-12-24T14:46:29.340Z,3.30
2018-12-24T14:48:45.125Z,3.40
2018-12-24T14:51:02.143Z,3.40
2018-12-24T14:53:18.007Z,3.40
2018-12-24T14:55:34.363Z,3.50
2018-12-24T14:57:51.110Z,3.40
2018-12-24T15:00:07.221Z,3.40
2018-12-24T15:04:46.948Z,3.40
2018-12-24T15:07:02.870Z,3.40
2018-12-24T15:09:19.715Z,3.50
2018-12-24T15:11:36.306Z,3.50
2018-12-24T15:13:52.484Z,3.50
2018-12-24T15:16:08.515Z,3.50
2018-12-24T15:18:24.757Z,3.50
2018-12-24T15:20:40.547Z,3.60
2018-12-24T15:22:56.596Z,3.50
2018-12-24T15:25:13.195Z,3.50
2018-12-24T15:27:29.775Z,3.50
2018-12-24T15:29:46.344Z,3.60
2018-12-24T15:32:02.567Z,3.50
2018-12-24T15:34:18.790Z,3.60
2018-12-24T15:36:35.928Z,3.60
2018-12-24T15:38:51.782Z,3.60
2018-12-24T15:41:07.427Z,3.60
2018-12-24T15:43:22.883Z,3.60
2018-12-24T15:45:38.734Z,3.60
2018-12-24T15:47:54.709Z,3.60
2018-12-24T15:50:10.751Z,3.50
2018-12-24T15:52:26.408Z,3.50
2018-12-24T15:54:42.878Z,3.50
2018-12-24T15:56:59.323Z,3.50
2018-12-24T15:59:15.689Z,3.50
2018-12-24T16:01:32.059Z,3.50
2018-12-24T16:03:48.576Z,3.50
2018-12-24T16:06:04.853Z,3.50
2018-12-24T16:08:21.086Z,3.40
2018-12-24T16:10:37.629Z,3.40
2018-12-24T16:12:53.539Z,3.40
2018-12-24T16:15:09.437Z,3.40
2018-12-24T16:17:25.043Z,3.40
2018-12-24T16:19:42.149Z,3.40
2018-12-24T16:21:59.071Z,3.40
2018-12-24T16:24:15.598Z,3.40
2018-12-24T16:26:31.606Z,3.30
2018-12-24T16:28:47.902Z,3.30
2018-12-24T16:31:04.344Z,3.30
2018-12-24T16:33:20.849Z,3.30
2018-12-24T16:35:37.633Z,3.40
2018-12-24T16:37:53.571Z,3.40
2018-12-24T16:40:09.680Z,3.50
2018-12-24T16:42:26.155Z,3.40
2018-12-24T16:44:42.407Z,3.50
2018-12-24T16:46:59.484Z,3.60
2018-12-24T16:49:16.443Z,3.60
2018-12-24T16:51:32.904Z,3.60
2018-12-24T16:53:49.036Z,3.60
2018-12-24T16:56:05.776Z,3.60
2018-12-24T16:58:22.487Z,3.60
2018-12-24T17:00:39.343Z,3.60
2018-12-24T17:02:55.384Z,3.60
2018-12-24T17:05:11.788Z,3.60
2018-12-24T17:07:28.132Z,3.70
2018-12-24T17:09:44.648Z,3.60
2018-12-24T17:12:00.870Z,3.60
2018-12-24T17:14:16.927Z,3.60
2018-12-24T17:16:33.520Z,3.70
2018-12-24T17:18:49.491Z,3.70
2018-12-24T17:21:06.231Z,3.80
2018-12-24T17:23:22.984Z,3.70
2018-12-24T17:25:39.023Z,3.60
2018-12-24T17:27:55.988Z,3.50
2018-12-24T17:30:12.749Z,3.60
2018-12-24T17:32:28.808Z,3.60
2018-12-24T17:34:44.614Z,3.80
2018-12-24T17:37:01.244Z,3.70
2018-12-24T17:39:17.252Z,3.80
2018-12-24T17:41:33.693Z,3.80
2018-12-24T17:43:50.543Z,3.80
2018-12-24T17:46:06.813Z,3.80
2018-12-24T17:48:23.431Z,3.80
2018-12-24T17:50:39.830Z,3.80
2018-12-24T17:52:56.299Z,3.80
2018-12-24T17:55:12.843Z,3.60
2018-12-24T17:57:28.828Z,3.80
2018-12-24T17:59:44.723Z,3.70
2018-12-24T18:02:01.544Z,3.70
2018-12-24T18:04:17.974Z,3.70
2018-12-24T18:06:34.636Z,3.70
2018-12-24T18:08:50.624Z,3.70
2018-12-24T18:11:06.508Z,3.70
2018-12-24T18:13:23.191Z,3.70
2018-12-24T18:15:39.556Z,3.60
2018-12-24T18:17:55.647Z,3.60
2018-12-24T18:20:12.166Z,3.70
2018-12-24T18:22:28.599Z,3.70
2018-12-24T18:24:44.544Z,3.60
2018-12-24T18:27:00.127Z,3.70
2018-12-24T18:29:16.242Z,3.70
2018-12-24T18:31:32.205Z,3.60
2018-12-24T18:33:48.522Z,3.60
2018-12-24T18:36:04.461Z,3.70
2018-12-24T18:38:20.603Z,3.70
2018-12-24T18:40:37.409Z,3.70
2018-12-24T18:42:53.403Z,3.70
2018-12-24T18:45:08.897Z,3.70
2018-12-24T18:47:32.962Z,3.60
2018-12-24T18:49:42.879Z,3.60
2018-12-24T18:51:59.523Z,3.70
2018-12-24T18:54:15.835Z,3.70
2018-12-24T18:56:31.675Z,3.70
2018-12-24T18:58:47.812Z,3.60
2018-12-24T19:01:04.886Z,3.70
2018-12-24T19:03:21.272Z,3.70
2018-12-24T19:05:37.412Z,3.40
2018-12-24T19:07:53.883Z,3.80
2018-12-24T19:10:10.176Z,3.80
2018-12-24T19:12:26.480Z,3.80
2018-12-24T19:14:42.382Z,3.70
2018-12-24T19:16:56.731Z,3.80
2018-12-24T19:19:20.101Z,3.50
2018-12-24T19:21:44.091Z,3.70
2018-12-24T19:26:53.569Z,3.80
2018-12-24T19:29:16.848Z,3.80
2018-12-24T19:31:40.107Z,2.80
2018-12-24T19:34:03.242Z,3.80
2018-12-24T19:39:09.063Z,3.70
2018-12-24T19:41:32.327Z,3.70
2018-12-24T19:43:56.047Z,3.70
2018-12-24T19:48:48.627Z,3.70
2018-12-24T19:51:11.911Z,3.70
2018-12-24T20:01:09.603Z,3.70
2018-12-24T20:03:32.727Z,3.70
2018-12-24T20:05:56.451Z,3.70
2018-12-24T20:13:22.943Z,3.70
2018-12-24T20:15:46.564Z,3.80
2018-12-24T20:20:39.247Z,3.80
2018-12-24T20:23:03.565Z,3.80
2018-12-24T20:25:26.855Z,3.80
2018-12-24T20:28:04.532Z,3.80
2018-12-24T20:30:16.360Z,3.80
2018-12-24T20:32:40.031Z,3.90
2018-12-24T20:35:03.612Z,4.00
2018-12-24T20:37:26.931Z,4.00
2018-12-24T20:42:24.581Z,4.10
2018-12-24T20:47:33.159Z,4.20
2018-12-24T20:52:39.756Z,4.20
2018-12-24T20:55:03.903Z,4.30
2018-12-24T20:57:27.643Z,4.30
2018-12-24T20:59:51.239Z,4.30
2018-12-24T21:04:52.019Z,4.40
2018-12-24T21:07:08.039Z,4.50
2018-12-24T21:09:24.239Z,4.50
2018-12-24T21:11:40.804Z,4.50
2018-12-24T21:13:56.619Z,4.50
2018-12-24T21:16:13.376Z,4.60
2018-12-24T21:18:29.459Z,4.50
2018-12-24T21:20:46.266Z,4.60
2018-12-24T21:23:02.477Z,4.60
2018-12-24T21:25:18.763Z,4.50
2018-12-24T21:29:54.407Z,4.50
2018-12-24T21:31:58.997Z,4.60
2018-12-24T21:34:04.011Z,4.50
2018-12-24T21:36:08.967Z,4.50
2018-12-24T21:38:13.163Z,4.50
2018-12-24T21:40:17.724Z,4.60
2018-12-24T21:42:41.396Z,4.60
2018-12-24T21:45:04.701Z,4.60
